Brainerd Lakes Regional Airport
KBRD : now visible

Airfield :











YOU CAN JOIN US ON...

 
LOGIN :

Register | Disclaimer

   EN    FR    IT 

 









Legend :    VFR   Marginal VFR   IFR   Intensive IFR   Very Intensive IFR
Visi :
Ceiling :
>= 8 km
>= 3000ft
5 to 8 km
1000 to 3000 ft
1500m to 5 km
500 to 1000 ft
800 to 1500m
200 to 500 ft
< 800m
< 200 ft
Symbols :   Thunderstorms  Fog  Heavy snow  Heavy precipitations  Wind > 20 kt






- Airport Elevation : 1232 ft


KBRD - Brainerd Lakes Regional

CURRENT METAR :
  • 080653Z AUTO 00000KT 9SM CLR 04/M01 A2972 RMK AO2 SLP070 T00391011

EXPIRED METARs :
  • 080553Z AUTO 00000KT 10SM CLR 05/M01 A2974 RMK AO2 SLP074 60000 T00501011 10144 20050 402060050 58002
  • 080453Z AUTO 00000KT 10SM BKN120 07/M01 A2974 RMK AO2 SLP075 T00721006

TAF KBRD
Valid from the 08 at 06:00 until the 09 at 06:00 UTC


080540Z 0806/0906 00000KT P6SM BKN090
FM081100 29005KT P6SM BKN250
FM081400 30015G24KT P6SM SCT250
FM081800 30016G27KT P6SM SCT090



MET'MAP, your aeronautical weather chart ! - Copyright ORBIFLY December 2007 - Disclaimer

ORBIFLY MET'MAP TEAM :

Programming & Development : Alexandra Zaïnal
Concept & original design : Baudouin d'Aumeries
Assistance for programming : Marc-Olivier Méhu
Technical & hardware support : Manuel Goepfert

Contact : metmap@orbifly.com




SOURCES & CREDITS :

   NOAA       Earth
Advisory